sensor_id;sensor_type;location;lat;lon;timestamp;P1;durP1;ratioP1;P2;durP2;ratioP2
5379;SDS011;2713;42.680;23.310;2023-03-05T00:02:05;25.57;;;15.23;;
5379;SDS011;2713;42.680;23.310;2023-03-05T00:04:32;23.53;;;13.53;;
5379;SDS011;2713;42.680;23.310;2023-03-05T00:06:59;23.90;;;14.20;;
5379;SDS011;2713;42.680;23.310;2023-03-05T00:09:26;20.07;;;13.20;;
5379;SDS011;2713;42.680;23.310;2023-03-05T00:11:54;24.07;;;14.87;;
5379;SDS011;2713;42.680;23.310;2023-03-05T00:14:21;24.60;;;15.23;;
5379;SDS011;2713;42.680;23.310;2023-03-05T00:16:48;21.40;;;14.53;;
5379;SDS011;2713;42.680;23.310;2023-03-05T00:19:15;21.23;;;14.33;;
5379;SDS011;2713;42.680;23.310;2023-03-05T00:21:42;20.50;;;13.97;;
5379;SDS011;2713;42.680;23.310;2023-03-05T00:24:10;21.93;;;14.03;;
5379;SDS011;2713;42.680;23.310;2023-03-05T00:26:38;19.60;;;13.80;;
5379;SDS011;2713;42.680;23.310;2023-03-05T00:29:07;22.73;;;13.30;;
5379;SDS011;2713;42.680;23.310;2023-03-05T00:31:43;21.50;;;14.20;;
5379;SDS011;2713;42.680;23.310;2023-03-05T00:34:11;22.70;;;13.90;;
5379;SDS011;2713;42.680;23.310;2023-03-05T00:36:39;20.47;;;14.03;;
5379;SDS011;2713;42.680;23.310;2023-03-05T00:39:07;19.60;;;13.00;;
5379;SDS011;2713;42.680;23.310;2023-03-05T00:41:34;19.30;;;12.77;;
5379;SDS011;2713;42.680;23.310;2023-03-05T00:44:00;22.10;;;13.93;;
5379;SDS011;2713;42.680;23.310;2023-03-05T00:46:29;21.63;;;14.53;;
5379;SDS011;2713;42.680;23.310;2023-03-05T00:48:56;17.87;;;13.20;;
5379;SDS011;2713;42.680;23.310;2023-03-05T00:51:23;22.40;;;13.97;;
5379;SDS011;2713;42.680;23.310;2023-03-05T00:53:50;21.40;;;14.90;;
5379;SDS011;2713;42.680;23.310;2023-03-05T00:56:17;26.27;;;14.70;;
5379;SDS011;2713;42.680;23.310;2023-03-05T00:58:44;24.47;;;13.90;;
5379;SDS011;2713;42.680;23.310;2023-03-05T01:01:11;21.57;;;13.47;;
5379;SDS011;2713;42.680;23.310;2023-03-05T01:03:40;22.03;;;13.53;;
5379;SDS011;2713;42.680;23.310;2023-03-05T01:06:07;19.47;;;13.03;;
5379;SDS011;2713;42.680;23.310;2023-03-05T01:08:36;22.17;;;12.90;;
5379;SDS011;2713;42.680;23.310;2023-03-05T01:11:04;20.00;;;12.60;;
5379;SDS011;2713;42.680;23.310;2023-03-05T01:13:31;18.60;;;12.10;;
5379;SDS011;2713;42.680;23.310;2023-03-05T01:15:58;17.90;;;12.10;;
5379;SDS011;2713;42.680;23.310;2023-03-05T01:18:25;16.83;;;12.00;;
5379;SDS011;2713;42.680;23.310;2023-03-05T01:20:54;17.60;;;12.03;;
5379;SDS011;2713;42.680;23.310;2023-03-05T01:23:20;21.23;;;12.70;;
5379;SDS011;2713;42.680;23.310;2023-03-05T01:25:51;17.80;;;12.00;;
5379;SDS011;2713;42.680;23.310;2023-03-05T01:28:18;21.80;;;11.40;;
5379;SDS011;2713;42.680;23.310;2023-03-05T01:30:45;18.13;;;12.33;;
5379;SDS011;2713;42.680;23.310;2023-03-05T01:33:12;19.10;;;11.57;;
5379;SDS011;2713;42.680;23.310;2023-03-05T01:35:39;19.40;;;12.87;;
5379;SDS011;2713;42.680;23.310;2023-03-05T01:38:07;19.67;;;12.47;;
5379;SDS011;2713;42.680;23.310;2023-03-05T01:40:34;19.90;;;11.93;;
5379;SDS011;2713;42.680;23.310;2023-03-05T01:43:07;19.03;;;11.77;;
5379;SDS011;2713;42.680;23.310;2023-03-05T01:48:53;16.80;;;11.47;;
5379;SDS011;2713;42.680;23.310;2023-03-05T01:51:27;17.30;;;11.93;;
5379;SDS011;2713;42.680;23.310;2023-03-05T01:53:58;20.07;;;11.20;;
5379;SDS011;2713;42.680;23.310;2023-03-05T01:56:26;18.33;;;11.90;;
5379;SDS011;2713;42.680;23.310;2023-03-05T01:58:54;18.33;;;11.80;;
5379;SDS011;2713;42.680;23.310;2023-03-05T02:01:32;17.07;;;11.00;;
5379;SDS011;2713;42.680;23.310;2023-03-05T02:04:03;19.77;;;12.10;;
5379;SDS011;2713;42.680;23.310;2023-03-05T02:06:32;19.83;;;11.27;;
5379;SDS011;2713;42.680;23.310;2023-03-05T02:09:01;16.73;;;11.60;;
5379;SDS011;2713;42.680;23.310;2023-03-05T02:11:28;21.20;;;11.90;;
5379;SDS011;2713;42.680;23.310;2023-03-05T02:13:55;17.63;;;12.10;;
5379;SDS011;2713;42.680;23.310;2023-03-05T02:16:23;17.43;;;11.83;;
5379;SDS011;2713;42.680;23.310;2023-03-05T02:18:50;19.77;;;11.80;;
5379;SDS011;2713;42.680;23.310;2023-03-05T02:21:27;17.90;;;11.73;;
5379;SDS011;2713;42.680;23.310;2023-03-05T02:23:54;22.07;;;12.50;;
5379;SDS011;2713;42.680;23.310;2023-03-05T02:26:21;19.57;;;11.97;;
5379;SDS011;2713;42.680;23.310;2023-03-05T02:28:49;19.60;;;12.60;;
5379;SDS011;2713;42.680;23.310;2023-03-05T02:34:03;21.03;;;12.07;;
5379;SDS011;2713;42.680;23.310;2023-03-05T02:36:32;21.97;;;12.97;;
5379;SDS011;2713;42.680;23.310;2023-03-05T02:38:59;21.73;;;12.37;;
5379;SDS011;2713;42.680;23.310;2023-03-05T02:41:26;21.93;;;12.90;;
5379;SDS011;2713;42.680;23.310;2023-03-05T02:43:55;20.70;;;12.80;;
5379;SDS011;2713;42.680;23.310;2023-03-05T02:46:22;21.27;;;13.13;;
5379;SDS011;2713;42.680;23.310;2023-03-05T02:48:49;19.03;;;12.70;;
5379;SDS011;2713;42.680;23.310;2023-03-05T02:51:16;22.50;;;13.10;;
5379;SDS011;2713;42.680;23.310;2023-03-05T02:53:45;25.80;;;13.60;;
5379;SDS011;2713;42.680;23.310;2023-03-05T02:56:13;19.97;;;13.73;;
5379;SDS011;2713;42.680;23.310;2023-03-05T02:58:40;20.60;;;13.90;;
5379;SDS011;2713;42.680;23.310;2023-03-05T03:01:07;19.17;;;13.43;;
5379;SDS011;2713;42.680;23.310;2023-03-05T03:03:35;22.07;;;13.77;;
5379;SDS011;2713;42.680;23.310;2023-03-05T03:06:05;22.30;;;13.57;;
5379;SDS011;2713;42.680;23.310;2023-03-05T03:08:32;20.37;;;14.10;;
5379;SDS011;2713;42.680;23.310;2023-03-05T03:11:04;23.50;;;15.10;;
5379;SDS011;2713;42.680;23.310;2023-03-05T03:13:32;25.73;;;14.53;;
5379;SDS011;2713;42.680;23.310;2023-03-05T03:16:03;26.00;;;14.07;;
5379;SDS011;2713;42.680;23.310;2023-03-05T03:18:31;21.60;;;14.00;;
5379;SDS011;2713;42.680;23.310;2023-03-05T03:20:58;24.10;;;14.47;;
5379;SDS011;2713;42.680;23.310;2023-03-05T03:23:25;24.73;;;14.50;;
5379;SDS011;2713;42.680;23.310;2023-03-05T03:25:53;23.20;;;14.10;;
5379;SDS011;2713;42.680;23.310;2023-03-05T03:28:21;20.97;;;13.70;;
5379;SDS011;2713;42.680;23.310;2023-03-05T03:30:48;23.43;;;14.70;;
5379;SDS011;2713;42.680;23.310;2023-03-05T03:33:15;22.07;;;14.00;;
5379;SDS011;2713;42.680;23.310;2023-03-05T03:35:42;20.83;;;13.13;;
5379;SDS011;2713;42.680;23.310;2023-03-05T03:38:09;24.43;;;14.23;;
5379;SDS011;2713;42.680;23.310;2023-03-05T03:40:38;24.10;;;13.50;;
5379;SDS011;2713;42.680;23.310;2023-03-05T03:43:05;21.57;;;13.43;;
5379;SDS011;2713;42.680;23.310;2023-03-05T03:45:33;26.07;;;13.80;;
5379;SDS011;2713;42.680;23.310;2023-03-05T03:48:00;23.70;;;14.90;;
5379;SDS011;2713;42.680;23.310;2023-03-05T03:50:27;26.50;;;15.80;;
5379;SDS011;2713;42.680;23.310;2023-03-05T03:52:53;22.03;;;13.60;;
5379;SDS011;2713;42.680;23.310;2023-03-05T03:55:20;21.97;;;13.50;;
5379;SDS011;2713;42.680;23.310;2023-03-05T03:57:47;22.20;;;13.77;;
5379;SDS011;2713;42.680;23.310;2023-03-05T04:00:14;29.73;;;13.77;;
5379;SDS011;2713;42.680;23.310;2023-03-05T04:02:43;25.13;;;15.03;;
5379;SDS011;2713;42.680;23.310;2023-03-05T04:05:10;26.37;;;14.70;;
5379;SDS011;2713;42.680;23.310;2023-03-05T04:07:37;21.57;;;13.30;;
5379;SDS011;2713;42.680;23.310;2023-03-05T04:10:04;24.23;;;14.70;;
5379;SDS011;2713;42.680;23.310;2023-03-05T04:12:31;23.40;;;14.73;;
5379;SDS011;2713;42.680;23.310;2023-03-05T04:14:58;25.47;;;14.83;;
5379;SDS011;2713;42.680;23.310;2023-03-05T04:17:25;21.27;;;13.90;;
5379;SDS011;2713;42.680;23.310;2023-03-05T04:19:53;22.90;;;13.93;;
5379;SDS011;2713;42.680;23.310;2023-03-05T04:22:20;24.90;;;13.60;;
5379;SDS011;2713;42.680;23.310;2023-03-05T04:24:46;25.87;;;14.80;;
5379;SDS011;2713;42.680;23.310;2023-03-05T04:27:13;24.10;;;14.00;;
5379;SDS011;2713;42.680;23.310;2023-03-05T04:29:40;23.47;;;13.73;;
5379;SDS011;2713;42.680;23.310;2023-03-05T04:32:07;23.53;;;13.70;;
5379;SDS011;2713;42.680;23.310;2023-03-05T04:34:35;25.13;;;14.70;;
5379;SDS011;2713;42.680;23.310;2023-03-05T04:37:03;26.63;;;14.80;;
5379;SDS011;2713;42.680;23.310;2023-03-05T04:39:30;27.43;;;15.43;;
5379;SDS011;2713;42.680;23.310;2023-03-05T04:41:57;25.50;;;14.73;;
5379;SDS011;2713;42.680;23.310;2023-03-05T04:44:24;26.60;;;14.90;;
5379;SDS011;2713;42.680;23.310;2023-03-05T04:46:51;25.53;;;13.93;;
5379;SDS011;2713;42.680;23.310;2023-03-05T04:49:18;23.47;;;13.60;;
5379;SDS011;2713;42.680;23.310;2023-03-05T04:51:44;26.50;;;15.00;;
5379;SDS011;2713;42.680;23.310;2023-03-05T04:54:12;23.10;;;14.03;;
5379;SDS011;2713;42.680;23.310;2023-03-05T04:56:39;26.53;;;14.87;;
5379;SDS011;2713;42.680;23.310;2023-03-05T04:59:06;24.07;;;14.17;;
5379;SDS011;2713;42.680;23.310;2023-03-05T05:01:33;24.50;;;14.43;;
5379;SDS011;2713;42.680;23.310;2023-03-05T05:04:00;24.07;;;13.63;;
5379;SDS011;2713;42.680;23.310;2023-03-05T05:06:26;23.20;;;14.80;;
5379;SDS011;2713;42.680;23.310;2023-03-05T05:08:53;30.77;;;14.87;;
5379;SDS011;2713;42.680;23.310;2023-03-05T05:11:21;25.50;;;13.87;;
5379;SDS011;2713;42.680;23.310;2023-03-05T05:13:48;26.93;;;15.23;;
5379;SDS011;2713;42.680;23.310;2023-03-05T05:16:15;21.97;;;13.40;;
5379;SDS011;2713;42.680;23.310;2023-03-05T05:18:42;24.97;;;14.30;;
5379;SDS011;2713;42.680;23.310;2023-03-05T05:21:10;26.37;;;14.97;;
5379;SDS011;2713;42.680;23.310;2023-03-05T05:23:38;19.30;;;12.83;;
5379;SDS011;2713;42.680;23.310;2023-03-05T05:26:06;23.20;;;14.67;;
5379;SDS011;2713;42.680;23.310;2023-03-05T05:28:35;20.83;;;12.63;;
5379;SDS011;2713;42.680;23.310;2023-03-05T05:31:05;22.50;;;14.10;;
5379;SDS011;2713;42.680;23.310;2023-03-05T05:33:32;19.73;;;12.70;;
5379;SDS011;2713;42.680;23.310;2023-03-05T05:36:00;20.87;;;12.40;;
5379;SDS011;2713;42.680;23.310;2023-03-05T05:38:28;21.47;;;13.47;;
5379;SDS011;2713;42.680;23.310;2023-03-05T05:41:00;22.60;;;13.23;;
5379;SDS011;2713;42.680;23.310;2023-03-05T05:43:28;23.63;;;13.10;;
5379;SDS011;2713;42.680;23.310;2023-03-05T05:45:58;25.30;;;13.27;;
5379;SDS011;2713;42.680;23.310;2023-03-05T05:48:26;20.33;;;13.03;;
5379;SDS011;2713;42.680;23.310;2023-03-05T05:50:53;23.77;;;13.03;;
5379;SDS011;2713;42.680;23.310;2023-03-05T05:53:20;21.50;;;12.87;;
5379;SDS011;2713;42.680;23.310;2023-03-05T05:55:47;24.07;;;12.63;;
5379;SDS011;2713;42.680;23.310;2023-03-05T05:58:14;20.13;;;11.83;;
5379;SDS011;2713;42.680;23.310;2023-03-05T06:00:41;23.00;;;13.20;;
5379;SDS011;2713;42.680;23.310;2023-03-05T06:03:10;21.03;;;12.13;;
5379;SDS011;2713;42.680;23.310;2023-03-05T06:05:37;20.17;;;12.10;;
5379;SDS011;2713;42.680;23.310;2023-03-05T06:08:04;20.30;;;12.40;;
5379;SDS011;2713;42.680;23.310;2023-03-05T06:10:31;20.50;;;12.00;;
5379;SDS011;2713;42.680;23.310;2023-03-05T06:12:57;19.47;;;11.53;;
5379;SDS011;2713;42.680;23.310;2023-03-05T06:15:24;16.30;;;10.87;;
5379;SDS011;2713;42.680;23.310;2023-03-05T06:17:51;25.33;;;12.13;;
5379;SDS011;2713;42.680;23.310;2023-03-05T06:20:20;21.03;;;12.10;;
5379;SDS011;2713;42.680;23.310;2023-03-05T06:22:47;18.37;;;10.70;;
5379;SDS011;2713;42.680;23.310;2023-03-05T06:25:14;22.30;;;12.00;;
5379;SDS011;2713;42.680;23.310;2023-03-05T06:27:41;18.37;;;10.90;;
5379;SDS011;2713;42.680;23.310;2023-03-05T06:30:09;20.53;;;11.50;;
5379;SDS011;2713;42.680;23.310;2023-03-05T06:32:37;20.57;;;11.57;;
5379;SDS011;2713;42.680;23.310;2023-03-05T06:35:04;17.90;;;10.60;;
5379;SDS011;2713;42.680;23.310;2023-03-05T06:37:33;18.13;;;10.47;;
5379;SDS011;2713;42.680;23.310;2023-03-05T06:40:00;22.60;;;12.03;;
5379;SDS011;2713;42.680;23.310;2023-03-05T06:42:28;20.47;;;12.60;;
5379;SDS011;2713;42.680;23.310;2023-03-05T06:44:55;22.23;;;10.40;;
5379;SDS011;2713;42.680;23.310;2023-03-05T06:47:21;20.17;;;12.40;;
5379;SDS011;2713;42.680;23.310;2023-03-05T06:49:48;17.27;;;10.80;;
5379;SDS011;2713;42.680;23.310;2023-03-05T06:52:15;16.43;;;10.83;;
5379;SDS011;2713;42.680;23.310;2023-03-05T06:54:43;18.77;;;11.70;;
5379;SDS011;2713;42.680;23.310;2023-03-05T06:57:10;16.40;;;10.60;;
5379;SDS011;2713;42.680;23.310;2023-03-05T06:59:37;18.30;;;10.90;;
5379;SDS011;2713;42.680;23.310;2023-03-05T07:02:04;19.27;;;11.17;;
5379;SDS011;2713;42.680;23.310;2023-03-05T07:04:31;19.17;;;11.43;;
5379;SDS011;2713;42.680;23.310;2023-03-05T07:06:58;19.43;;;11.67;;
5379;SDS011;2713;42.680;23.310;2023-03-05T07:09:25;17.13;;;11.00;;
5379;SDS011;2713;42.680;23.310;2023-03-05T07:11:53;17.70;;;10.50;;
5379;SDS011;2713;42.680;23.310;2023-03-05T07:14:20;18.03;;;12.17;;
5379;SDS011;2713;42.680;23.310;2023-03-05T07:16:47;23.27;;;10.70;;
5379;SDS011;2713;42.680;23.310;2023-03-05T07:19:14;20.83;;;11.50;;
5379;SDS011;2713;42.680;23.310;2023-03-05T07:21:41;24.70;;;11.90;;
5379;SDS011;2713;42.680;23.310;2023-03-05T07:24:08;18.17;;;11.60;;
5379;SDS011;2713;42.680;23.310;2023-03-05T07:26:37;21.43;;;12.93;;
5379;SDS011;2713;42.680;23.310;2023-03-05T07:29:05;21.20;;;12.40;;
5379;SDS011;2713;42.680;23.310;2023-03-05T07:31:32;22.53;;;12.43;;
5379;SDS011;2713;42.680;23.310;2023-03-05T07:34:00;21.33;;;13.13;;
5379;SDS011;2713;42.680;23.310;2023-03-05T07:36:28;21.53;;;13.17;;
5379;SDS011;2713;42.680;23.310;2023-03-05T07:38:55;23.00;;;12.87;;
5379;SDS011;2713;42.680;23.310;2023-03-05T07:41:22;18.90;;;12.33;;
5379;SDS011;2713;42.680;23.310;2023-03-05T07:43:49;18.80;;;13.30;;
5379;SDS011;2713;42.680;23.310;2023-03-05T07:46:19;22.87;;;14.10;;
5379;SDS011;2713;42.680;23.310;2023-03-05T07:48:48;22.40;;;13.73;;
5379;SDS011;2713;42.680;23.310;2023-03-05T07:51:16;22.20;;;14.10;;
5379;SDS011;2713;42.680;23.310;2023-03-05T07:53:44;25.37;;;15.50;;
5379;SDS011;2713;42.680;23.310;2023-03-05T07:56:12;23.23;;;14.63;;
5379;SDS011;2713;42.680;23.310;2023-03-05T07:58:39;25.27;;;14.70;;
5379;SDS011;2713;42.680;23.310;2023-03-05T08:01:09;20.20;;;14.47;;
5379;SDS011;2713;42.680;23.310;2023-03-05T08:03:40;22.37;;;14.47;;
5379;SDS011;2713;42.680;23.310;2023-03-05T08:06:07;22.93;;;16.03;;
5379;SDS011;2713;42.680;23.310;2023-03-05T08:08:35;26.83;;;15.80;;
5379;SDS011;2713;42.680;23.310;2023-03-05T08:11:03;23.50;;;15.03;;
5379;SDS011;2713;42.680;23.310;2023-03-05T08:13:30;25.77;;;15.63;;
5379;SDS011;2713;42.680;23.310;2023-03-05T08:15:57;28.43;;;15.87;;
5379;SDS011;2713;42.680;23.310;2023-03-05T08:18:24;25.50;;;15.03;;
5379;SDS011;2713;42.680;23.310;2023-03-05T08:20:53;22.80;;;14.10;;
5379;SDS011;2713;42.680;23.310;2023-03-05T08:23:19;23.50;;;14.90;;
5379;SDS011;2713;42.680;23.310;2023-03-05T08:25:46;26.33;;;15.70;;
5379;SDS011;2713;42.680;23.310;2023-03-05T08:28:13;23.40;;;13.93;;
5379;SDS011;2713;42.680;23.310;2023-03-05T08:30:40;28.07;;;16.30;;
5379;SDS011;2713;42.680;23.310;2023-03-05T08:33:07;23.17;;;15.13;;
5379;SDS011;2713;42.680;23.310;2023-03-05T08:35:34;27.37;;;15.93;;
5379;SDS011;2713;42.680;23.310;2023-03-05T08:38:02;28.07;;;15.13;;
5379;SDS011;2713;42.680;23.310;2023-03-05T08:40:29;23.40;;;15.83;;
5379;SDS011;2713;42.680;23.310;2023-03-05T08:42:56;25.30;;;16.33;;
5379;SDS011;2713;42.680;23.310;2023-03-05T08:45:24;25.97;;;16.00;;
5379;SDS011;2713;42.680;23.310;2023-03-05T08:47:51;24.60;;;15.00;;
5379;SDS011;2713;42.680;23.310;2023-03-05T08:50:18;27.37;;;15.60;;
5379;SDS011;2713;42.680;23.310;2023-03-05T08:52:46;23.37;;;15.27;;
5379;SDS011;2713;42.680;23.310;2023-03-05T08:55:14;23.90;;;13.83;;
5379;SDS011;2713;42.680;23.310;2023-03-05T08:57:41;28.20;;;15.63;;
5379;SDS011;2713;42.680;23.310;2023-03-05T09:00:09;27.73;;;16.30;;
5379;SDS011;2713;42.680;23.310;2023-03-05T09:02:36;27.33;;;15.20;;
5379;SDS011;2713;42.680;23.310;2023-03-05T09:05:04;20.67;;;13.10;;
5379;SDS011;2713;42.680;23.310;2023-03-05T09:07:31;24.60;;;15.90;;
5379;SDS011;2713;42.680;23.310;2023-03-05T09:09:58;21.70;;;15.13;;
5379;SDS011;2713;42.680;23.310;2023-03-05T09:12:26;23.40;;;15.33;;
5379;SDS011;2713;42.680;23.310;2023-03-05T09:14:53;21.30;;;15.00;;
5379;SDS011;2713;42.680;23.310;2023-03-05T09:17:20;25.20;;;15.03;;
5379;SDS011;2713;42.680;23.310;2023-03-05T09:19:47;22.90;;;14.77;;
5379;SDS011;2713;42.680;23.310;2023-03-05T09:22:14;26.10;;;15.30;;
5379;SDS011;2713;42.680;23.310;2023-03-05T09:24:41;21.30;;;13.07;;
5379;SDS011;2713;42.680;23.310;2023-03-05T09:27:08;23.47;;;13.80;;
5379;SDS011;2713;42.680;23.310;2023-03-05T09:29:36;24.57;;;13.73;;
5379;SDS011;2713;42.680;23.310;2023-03-05T09:32:03;21.40;;;13.90;;
5379;SDS011;2713;42.680;23.310;2023-03-05T09:34:30;20.10;;;13.90;;
5379;SDS011;2713;42.680;23.310;2023-03-05T09:36:58;18.80;;;12.97;;
5379;SDS011;2713;42.680;23.310;2023-03-05T09:39:26;20.70;;;14.27;;
5379;SDS011;2713;42.680;23.310;2023-03-05T09:42:05;20.20;;;13.70;;
5379;SDS011;2713;42.680;23.310;2023-03-05T09:44:50;20.63;;;14.27;;
5379;SDS011;2713;42.680;23.310;2023-03-05T09:47:30;21.83;;;14.03;;
5379;SDS011;2713;42.680;23.310;2023-03-05T09:50:11;19.47;;;13.40;;
5379;SDS011;2713;42.680;23.310;2023-03-05T09:52:49;20.00;;;13.57;;
5379;SDS011;2713;42.680;23.310;2023-03-05T09:55:24;19.07;;;12.57;;
5379;SDS011;2713;42.680;23.310;2023-03-05T09:57:55;18.03;;;12.23;;
5379;SDS011;2713;42.680;23.310;2023-03-05T10:00:32;16.97;;;11.30;;
5379;SDS011;2713;42.680;23.310;2023-03-05T10:03:03;19.47;;;12.80;;
5379;SDS011;2713;42.680;23.310;2023-03-05T10:05:40;20.83;;;13.30;;
5379;SDS011;2713;42.680;23.310;2023-03-05T10:08:13;20.57;;;12.80;;
5379;SDS011;2713;42.680;23.310;2023-03-05T10:10:45;19.07;;;12.57;;
5379;SDS011;2713;42.680;23.310;2023-03-05T10:13:15;19.57;;;12.23;;
5379;SDS011;2713;42.680;23.310;2023-03-05T10:15:50;19.40;;;13.23;;
5379;SDS011;2713;42.680;23.310;2023-03-05T10:18:26;20.90;;;12.67;;
5379;SDS011;2713;42.680;23.310;2023-03-05T10:21:00;19.30;;;13.10;;
5379;SDS011;2713;42.680;23.310;2023-03-05T10:23:43;20.10;;;12.80;;
5379;SDS011;2713;42.680;23.310;2023-03-05T10:26:34;19.77;;;13.30;;
5379;SDS011;2713;42.680;23.310;2023-03-05T10:29:30;20.90;;;13.80;;
5379;SDS011;2713;42.680;23.310;2023-03-05T10:32:15;20.50;;;13.03;;
5379;SDS011;2713;42.680;23.310;2023-03-05T10:37:47;18.90;;;12.37;;
5379;SDS011;2713;42.680;23.310;2023-03-05T10:40:25;18.40;;;11.33;;
5379;SDS011;2713;42.680;23.310;2023-03-05T10:43:00;15.20;;;10.80;;
5379;SDS011;2713;42.680;23.310;2023-03-05T10:45:34;18.20;;;10.70;;
5379;SDS011;2713;42.680;23.310;2023-03-05T10:48:08;16.70;;;10.20;;
5379;SDS011;2713;42.680;23.310;2023-03-05T10:50:41;19.50;;;11.40;;
5379;SDS011;2713;42.680;23.310;2023-03-05T10:53:14;19.97;;;10.80;;
5379;SDS011;2713;42.680;23.310;2023-03-05T10:55:47;16.50;;;10.20;;
5379;SDS011;2713;42.680;23.310;2023-03-05T10:58:15;18.17;;;11.40;;
5379;SDS011;2713;42.680;23.310;2023-03-05T11:00:56;16.87;;;11.37;;
5379;SDS011;2713;42.680;23.310;2023-03-05T11:03:27;16.10;;;11.40;;
5379;SDS011;2713;42.680;23.310;2023-03-05T11:06:12;16.70;;;12.00;;
5379;SDS011;2713;42.680;23.310;2023-03-05T11:08:40;17.33;;;12.50;;
5379;SDS011;2713;42.680;23.310;2023-03-05T11:11:11;15.47;;;11.87;;
5379;SDS011;2713;42.680;23.310;2023-03-05T11:13:42;16.37;;;12.20;;
5379;SDS011;2713;42.680;23.310;2023-03-05T11:16:16;19.30;;;12.67;;
5379;SDS011;2713;42.680;23.310;2023-03-05T11:18:46;17.13;;;11.60;;
5379;SDS011;2713;42.680;23.310;2023-03-05T11:21:18;14.90;;;10.63;;
5379;SDS011;2713;42.680;23.310;2023-03-05T11:24:04;15.20;;;10.40;;
5379;SDS011;2713;42.680;23.310;2023-03-05T11:26:39;13.83;;;10.10;;
5379;SDS011;2713;42.680;23.310;2023-03-05T11:29:15;17.00;;;11.43;;
5379;SDS011;2713;42.680;23.310;2023-03-05T11:31:45;17.43;;;10.40;;
5379;SDS011;2713;42.680;23.310;2023-03-05T11:34:22;16.10;;;10.77;;
5379;SDS011;2713;42.680;23.310;2023-03-05T11:37:00;12.80;;;9.90;;
5379;SDS011;2713;42.680;23.310;2023-03-05T11:39:30;15.37;;;10.10;;
5379;SDS011;2713;42.680;23.310;2023-03-05T11:42:00;14.40;;;10.00;;
5379;SDS011;2713;42.680;23.310;2023-03-05T11:44:32;15.07;;;9.93;;
5379;SDS011;2713;42.680;23.310;2023-03-05T11:47:10;13.73;;;10.27;;
5379;SDS011;2713;42.680;23.310;2023-03-05T11:49:45;14.73;;;10.33;;
5379;SDS011;2713;42.680;23.310;2023-03-05T11:52:17;16.00;;;10.60;;
5379;SDS011;2713;42.680;23.310;2023-03-05T11:54:51;15.70;;;10.60;;
5379;SDS011;2713;42.680;23.310;2023-03-05T11:57:23;15.13;;;10.27;;
5379;SDS011;2713;42.680;23.310;2023-03-05T11:59:53;15.07;;;10.30;;
5379;SDS011;2713;42.680;23.310;2023-03-05T12:02:24;17.00;;;10.10;;
5379;SDS011;2713;42.680;23.310;2023-03-05T12:04:54;16.23;;;11.23;;
5379;SDS011;2713;42.680;23.310;2023-03-05T12:07:25;18.63;;;11.93;;
5379;SDS011;2713;42.680;23.310;2023-03-05T12:09:59;16.33;;;10.00;;
5379;SDS011;2713;42.680;23.310;2023-03-05T12:12:32;13.77;;;9.00;;
5379;SDS011;2713;42.680;23.310;2023-03-05T12:15:13;13.27;;;9.70;;
5379;SDS011;2713;42.680;23.310;2023-03-05T12:17:53;15.63;;;9.23;;
5379;SDS011;2713;42.680;23.310;2023-03-05T12:20:33;14.90;;;10.40;;
5379;SDS011;2713;42.680;23.310;2023-03-05T12:23:10;19.63;;;10.73;;
5379;SDS011;2713;42.680;23.310;2023-03-05T12:25:43;17.40;;;12.13;;
5379;SDS011;2713;42.680;23.310;2023-03-05T12:28:12;16.67;;;10.53;;
5379;SDS011;2713;42.680;23.310;2023-03-05T12:33:30;13.97;;;10.77;;
5379;SDS011;2713;42.680;23.310;2023-03-05T12:51:05;16.03;;;10.93;;
5379;SDS011;2713;42.680;23.310;2023-03-05T12:53:33;16.87;;;10.83;;
5379;SDS011;2713;42.680;23.310;2023-03-05T12:56:01;15.13;;;10.37;;
5379;SDS011;2713;42.680;23.310;2023-03-05T12:58:37;14.20;;;9.13;;
5379;SDS011;2713;42.680;23.310;2023-03-05T13:01:13;15.43;;;9.93;;
5379;SDS011;2713;42.680;23.310;2023-03-05T13:03:47;14.40;;;9.27;;
5379;SDS011;2713;42.680;23.310;2023-03-05T13:06:22;11.30;;;8.43;;
5379;SDS011;2713;42.680;23.310;2023-03-05T13:08:55;14.20;;;10.30;;
5379;SDS011;2713;42.680;23.310;2023-03-05T13:11:24;15.53;;;10.43;;
5379;SDS011;2713;42.680;23.310;2023-03-05T13:13:54;13.53;;;10.40;;
5379;SDS011;2713;42.680;23.310;2023-03-05T13:16:22;14.70;;;10.83;;
5379;SDS011;2713;42.680;23.310;2023-03-05T13:18:51;18.90;;;11.50;;
5379;SDS011;2713;42.680;23.310;2023-03-05T13:21:22;14.80;;;10.23;;
5379;SDS011;2713;42.680;23.310;2023-03-05T13:23:52;14.70;;;10.07;;
5379;SDS011;2713;42.680;23.310;2023-03-05T13:26:24;14.67;;;10.40;;
5379;SDS011;2713;42.680;23.310;2023-03-05T13:29:02;15.30;;;11.20;;
5379;SDS011;2713;42.680;23.310;2023-03-05T13:31:34;16.80;;;11.03;;
5379;SDS011;2713;42.680;23.310;2023-03-05T13:34:07;15.83;;;10.40;;
5379;SDS011;2713;42.680;23.310;2023-03-05T13:36:37;14.07;;;10.60;;
5379;SDS011;2713;42.680;23.310;2023-03-05T13:39:05;15.23;;;10.80;;
5379;SDS011;2713;42.680;23.310;2023-03-05T13:41:33;17.23;;;11.23;;
5379;SDS011;2713;42.680;23.310;2023-03-05T13:44:00;16.70;;;10.47;;
5379;SDS011;2713;42.680;23.310;2023-03-05T13:46:29;18.60;;;10.13;;
5379;SDS011;2713;42.680;23.310;2023-03-05T13:49:15;13.27;;;9.90;;
5379;SDS011;2713;42.680;23.310;2023-03-05T13:51:44;13.97;;;10.23;;
5379;SDS011;2713;42.680;23.310;2023-03-05T13:54:13;16.27;;;10.60;;
5379;SDS011;2713;42.680;23.310;2023-03-05T13:56:49;16.37;;;11.03;;
5379;SDS011;2713;42.680;23.310;2023-03-05T13:59:21;16.37;;;10.70;;
5379;SDS011;2713;42.680;23.310;2023-03-05T14:01:48;17.60;;;11.20;;
5379;SDS011;2713;42.680;23.310;2023-03-05T14:04:17;18.13;;;11.80;;
5379;SDS011;2713;42.680;23.310;2023-03-05T14:06:47;17.67;;;11.13;;
5379;SDS011;2713;42.680;23.310;2023-03-05T14:09:18;17.53;;;11.70;;
5379;SDS011;2713;42.680;23.310;2023-03-05T14:11:53;16.27;;;11.00;;
5379;SDS011;2713;42.680;23.310;2023-03-05T14:14:21;19.27;;;11.53;;
5379;SDS011;2713;42.680;23.310;2023-03-05T14:16:49;17.13;;;12.10;;
5379;SDS011;2713;42.680;23.310;2023-03-05T14:19:33;19.20;;;11.50;;
5379;SDS011;2713;42.680;23.310;2023-03-05T14:22:03;17.17;;;11.10;;
5379;SDS011;2713;42.680;23.310;2023-03-05T14:24:31;18.60;;;12.00;;
5379;SDS011;2713;42.680;23.310;2023-03-05T14:27:00;20.73;;;12.07;;
5379;SDS011;2713;42.680;23.310;2023-03-05T14:29:33;16.83;;;11.47;;
5379;SDS011;2713;42.680;23.310;2023-03-05T14:32:01;18.90;;;11.87;;
5379;SDS011;2713;42.680;23.310;2023-03-05T14:34:31;17.30;;;11.23;;
5379;SDS011;2713;42.680;23.310;2023-03-05T14:37:01;17.33;;;12.57;;
5379;SDS011;2713;42.680;23.310;2023-03-05T14:39:31;16.17;;;11.20;;
5379;SDS011;2713;42.680;23.310;2023-03-05T14:42:25;17.07;;;12.07;;
5379;SDS011;2713;42.680;23.310;2023-03-05T14:44:54;18.33;;;12.30;;
5379;SDS011;2713;42.680;23.310;2023-03-05T14:47:22;15.70;;;11.90;;
5379;SDS011;2713;42.680;23.310;2023-03-05T14:49:49;17.67;;;12.07;;
5379;SDS011;2713;42.680;23.310;2023-03-05T14:52:17;15.30;;;10.87;;
5379;SDS011;2713;42.680;23.310;2023-03-05T14:54:46;14.57;;;11.67;;
5379;SDS011;2713;42.680;23.310;2023-03-05T14:57:14;17.83;;;13.10;;
5379;SDS011;2713;42.680;23.310;2023-03-05T14:59:45;17.57;;;11.90;;
5379;SDS011;2713;42.680;23.310;2023-03-05T15:02:16;16.33;;;11.93;;
5379;SDS011;2713;42.680;23.310;2023-03-05T15:04:43;20.10;;;13.37;;
5379;SDS011;2713;42.680;23.310;2023-03-05T15:07:15;16.97;;;11.83;;
5379;SDS011;2713;42.680;23.310;2023-03-05T15:09:44;19.80;;;12.97;;
5379;SDS011;2713;42.680;23.310;2023-03-05T15:12:11;18.60;;;12.23;;
5379;SDS011;2713;42.680;23.310;2023-03-05T15:14:40;17.60;;;11.50;;
5379;SDS011;2713;42.680;23.310;2023-03-05T15:17:14;18.00;;;12.43;;